createdAt,value
2023-07-24T00:00:18.136Z,18.60
2023-07-24T00:02:44.883Z,18.60
2023-07-24T00:05:11.640Z,18.60
2023-07-24T00:07:38.425Z,18.60
2023-07-24T00:10:05.687Z,18.60
2023-07-24T00:12:32.761Z,18.60
2023-07-24T00:15:00.119Z,18.60
2023-07-24T00:17:26.902Z,18.70
2023-07-24T00:19:53.675Z,18.70
2023-07-24T00:22:20.414Z,18.70
2023-07-24T00:24:47.179Z,18.70
2023-07-24T00:27:14.990Z,18.50
2023-07-24T00:29:41.716Z,18.20
2023-07-24T00:32:08.792Z,18.10
2023-07-24T00:34:35.972Z,18.20
2023-07-24T00:37:03.182Z,18.30
2023-07-24T00:39:30.694Z,18.30
2023-07-24T00:41:58.026Z,18.30
2023-07-24T00:44:24.804Z,18.40
2023-07-24T00:46:51.937Z,18.20
2023-07-24T00:49:21.617Z,18.10
2023-07-24T00:51:48.852Z,18.10
2023-07-24T00:54:17.870Z,18.00
2023-07-24T00:56:46.467Z,18.10
2023-07-24T00:59:16.116Z,18.10
2023-07-24T01:01:43.752Z,18.10
2023-07-24T01:04:10.607Z,18.20
2023-07-24T01:06:37.383Z,18.20
2023-07-24T01:09:04.176Z,18.10
2023-07-24T01:11:55.988Z,18.10
2023-07-24T01:14:27.891Z,18.10
2023-07-24T01:16:58.155Z,18.00
2023-07-24T01:19:57.552Z,18.00
2023-07-24T01:22:30.311Z,18.10
2023-07-24T01:25:12.476Z,17.90
2023-07-24T01:27:46.495Z,17.90
2023-07-24T01:30:15.997Z,18.00
2023-07-24T01:32:42.710Z,18.00
2023-07-24T01:35:09.579Z,18.00
2023-07-24T01:37:40.347Z,18.10
2023-07-24T01:40:11.839Z,18.20
2023-07-24T01:42:39.082Z,18.20
2023-07-24T01:45:06.497Z,18.10
2023-07-24T01:47:33.867Z,18.00
2023-07-24T01:50:00.608Z,18.00
2023-07-24T01:52:27.531Z,18.00
2023-07-24T01:54:54.534Z,17.90
2023-07-24T01:57:21.292Z,18.00
2023-07-24T01:59:49.723Z,18.00
2023-07-24T02:02:16.585Z,17.90
2023-07-24T02:04:43.340Z,17.90
2023-07-24T02:07:10.042Z,17.90
2023-07-24T02:09:36.785Z,17.80
2023-07-24T02:12:03.736Z,17.60
2023-07-24T02:14:30.482Z,17.40
2023-07-24T02:16:57.306Z,17.50
2023-07-24T02:19:23.961Z,17.50
2023-07-24T02:21:50.709Z,17.40
2023-07-24T02:24:17.388Z,17.40
2023-07-24T02:26:44.077Z,17.40
2023-07-24T02:29:10.745Z,17.30
2023-07-24T02:31:37.510Z,17.30
2023-07-24T02:34:04.249Z,17.20
2023-07-24T02:36:31.187Z,17.20
2023-07-24T02:38:58.307Z,17.20
2023-07-24T02:41:26.405Z,17.10
2023-07-24T02:43:53.089Z,17.20
2023-07-24T02:46:19.956Z,17.20
2023-07-24T02:48:46.650Z,17.30
2023-07-24T02:51:13.308Z,17.40
2023-07-24T02:53:40.028Z,17.40
2023-07-24T02:56:06.823Z,17.50
2023-07-24T02:58:33.563Z,17.50
2023-07-24T03:01:05.319Z,17.40
2023-07-24T03:03:32.234Z,17.40
2023-07-24T03:05:58.977Z,17.40
2023-07-24T03:08:25.673Z,17.30
2023-07-24T03:10:52.502Z,17.10
2023-07-24T03:13:19.273Z,17.10
2023-07-24T03:15:53.940Z,17.10
2023-07-24T03:18:21.057Z,17.10
2023-07-24T03:20:47.834Z,17.10
2023-07-24T03:23:14.776Z,17.10
2023-07-24T03:25:41.703Z,17.10
2023-07-24T03:28:08.559Z,17.10
2023-07-24T03:30:35.330Z,17.10
2023-07-24T03:33:03.086Z,17.10
2023-07-24T03:35:31.407Z,17.10
2023-07-24T03:37:58.120Z,17.10
2023-07-24T03:40:26.598Z,17.10
2023-07-24T03:42:53.265Z,17.20
2023-07-24T03:45:19.945Z,17.30
2023-07-24T03:47:46.646Z,17.20
2023-07-24T03:50:13.411Z,17.10
2023-07-24T03:52:40.116Z,17.00
2023-07-24T03:55:08.886Z,16.70
2023-07-24T03:57:35.630Z,16.80
2023-07-24T04:00:03.328Z,16.80
2023-07-24T04:02:39.284Z,16.90
2023-07-24T04:05:06.183Z,17.00
2023-07-24T04:07:32.937Z,17.00
2023-07-24T04:09:59.652Z,17.00
2023-07-24T04:12:26.340Z,17.10
2023-07-24T04:14:53.072Z,17.20
2023-07-24T04:17:19.904Z,17.20
2023-07-24T04:19:46.656Z,17.30
2023-07-24T04:22:13.380Z,17.40
2023-07-24T04:24:40.232Z,17.40
2023-07-24T04:27:06.985Z,17.40
2023-07-24T04:29:33.644Z,17.40
2023-07-24T04:32:00.427Z,17.30
2023-07-24T04:34:27.090Z,17.20
2023-07-24T04:36:53.805Z,17.30
2023-07-24T04:39:20.486Z,17.30
2023-07-24T04:41:47.371Z,17.40
2023-07-24T04:44:14.034Z,17.50
2023-07-24T04:46:40.742Z,17.50
2023-07-24T04:49:07.427Z,17.50
2023-07-24T04:51:36.593Z,17.60
2023-07-24T04:54:03.667Z,17.80
2023-07-24T04:56:30.776Z,17.90
2023-07-24T04:58:57.744Z,18.00
2023-07-24T05:01:24.695Z,18.10
2023-07-24T05:03:51.463Z,18.00
2023-07-24T05:06:18.171Z,18.10
2023-07-24T05:08:44.958Z,18.00
2023-07-24T05:11:11.684Z,18.10
2023-07-24T05:13:38.369Z,18.10
2023-07-24T05:16:05.363Z,18.10
2023-07-24T05:18:32.086Z,18.20
2023-07-24T05:20:58.843Z,18.20
2023-07-24T05:23:25.580Z,18.20
2023-07-24T05:26:02.801Z,18.20
2023-07-24T05:28:30.815Z,18.30
2023-07-24T05:31:01.476Z,18.20
2023-07-24T05:33:28.141Z,18.30
2023-07-24T05:36:00.017Z,18.30
2023-07-24T05:38:27.445Z,18.40
2023-07-24T05:41:01.813Z,18.40
2023-07-24T05:43:29.314Z,18.50
2023-07-24T05:45:57.433Z,18.40
2023-07-24T05:48:25.366Z,18.40
2023-07-24T05:50:52.225Z,18.50
2023-07-24T05:53:19.032Z,18.70
2023-07-24T05:55:45.855Z,18.70
2023-07-24T05:58:12.875Z,18.80
2023-07-24T06:00:39.848Z,18.70
2023-07-24T06:03:08.667Z,19.00
2023-07-24T06:05:35.995Z,19.10
2023-07-24T06:08:02.775Z,19.20
2023-07-24T06:10:29.640Z,19.40
2023-07-24T06:12:56.379Z,19.30
2023-07-24T06:15:23.053Z,19.30
2023-07-24T06:17:51.819Z,19.30
2023-07-24T06:20:21.014Z,19.60
2023-07-24T06:22:47.783Z,19.70
2023-07-24T06:25:14.499Z,19.90
2023-07-24T06:27:41.191Z,19.90
2023-07-24T06:30:15.227Z,19.90
2023-07-24T06:32:42.770Z,19.70
2023-07-24T06:35:09.640Z,19.80
2023-07-24T06:37:36.366Z,20.00
2023-07-24T06:40:03.740Z,19.90
2023-07-24T06:42:30.513Z,20.20
2023-07-24T06:44:57.182Z,20.50
2023-07-24T06:47:23.899Z,21.10
2023-07-24T06:49:50.582Z,21.50
2023-07-24T06:52:17.350Z,21.70
2023-07-24T06:54:44.284Z,22.10
2023-07-24T06:57:11.308Z,22.30
2023-07-24T06:59:38.080Z,22.30
2023-07-24T07:02:04.971Z,22.20
2023-07-24T07:04:31.742Z,22.00
2023-07-24T07:06:58.445Z,21.90
2023-07-24T07:09:25.161Z,22.00
2023-07-24T07:11:51.846Z,21.90
2023-07-24T07:14:18.537Z,22.00
2023-07-24T07:16:45.547Z,22.00
2023-07-24T07:19:12.317Z,22.10
2023-07-24T07:21:39.056Z,22.20
2023-07-24T07:24:06.071Z,22.30
2023-07-24T07:26:33.001Z,22.30
2023-07-24T07:29:00.670Z,22.40
2023-07-24T07:31:27.438Z,22.30
2023-07-24T07:33:54.233Z,22.10
2023-07-24T07:36:23.068Z,22.00
2023-07-24T07:38:50.196Z,21.90
2023-07-24T07:41:16.981Z,22.00
2023-07-24T07:43:43.668Z,22.20
2023-07-24T07:46:10.481Z,22.40
2023-07-24T07:48:37.200Z,22.70
2023-07-24T07:51:03.975Z,23.00
2023-07-24T07:53:32.670Z,23.30
2023-07-24T07:56:00.964Z,23.40
2023-07-24T07:58:27.952Z,23.50
2023-07-24T08:00:54.735Z,23.50
2023-07-24T08:03:21.812Z,23.40
2023-07-24T08:05:48.717Z,23.30
2023-07-24T08:08:15.420Z,23.10
2023-07-24T08:10:42.153Z,23.20
2023-07-24T08:13:08.920Z,23.40
2023-07-24T08:15:37.106Z,23.60
2023-07-24T08:18:06.035Z,23.30
2023-07-24T08:20:36.485Z,23.30
2023-07-24T08:23:03.198Z,23.40
2023-07-24T08:25:29.871Z,23.50
2023-07-24T08:28:05.232Z,23.30
2023-07-24T08:30:35.027Z,23.50
2023-07-24T08:33:01.806Z,23.70
2023-07-24T08:35:28.603Z,24.00
2023-07-24T08:37:55.311Z,24.20
2023-07-24T08:40:22.213Z,24.60
2023-07-24T08:42:51.994Z,24.70
2023-07-24T08:45:19.325Z,24.20
2023-07-24T08:47:46.518Z,23.60
2023-07-24T08:50:14.411Z,23.40
2023-07-24T08:52:41.108Z,23.40
2023-07-24T08:55:08.282Z,23.20
2023-07-24T08:57:35.550Z,23.10
2023-07-24T09:00:05.550Z,23.00
2023-07-24T09:02:36.540Z,23.10
2023-07-24T09:05:04.624Z,23.30
2023-07-24T09:07:32.472Z,23.60
2023-07-24T09:09:59.379Z,23.60
2023-07-24T09:12:26.095Z,23.80
2023-07-24T09:15:07.264Z,23.80
2023-07-24T09:17:35.132Z,24.00
2023-07-24T09:20:03.201Z,24.30
2023-07-24T09:22:29.988Z,24.40
2023-07-24T09:24:58.450Z,24.20
2023-07-24T09:27:30.082Z,24.50
2023-07-24T09:29:58.826Z,24.40
2023-07-24T09:32:27.815Z,24.60
2023-07-24T09:34:55.326Z,24.90
2023-07-24T09:37:28.757Z,24.90
2023-07-24T09:39:55.547Z,25.20
2023-07-24T09:42:58.244Z,25.10
2023-07-24T09:45:28.634Z,25.00
2023-07-24T09:48:05.252Z,24.90
2023-07-24T09:50:35.032Z,24.90
2023-07-24T09:53:02.425Z,25.00
2023-07-24T09:55:39.551Z,25.40
2023-07-24T09:58:08.081Z,25.30
2023-07-24T10:00:35.306Z,25.40
2023-07-24T10:03:03.101Z,25.40
2023-07-24T10:05:30.903Z,25.30
2023-07-24T10:07:58.764Z,25.60
2023-07-24T10:10:26.482Z,25.70
2023-07-24T10:12:53.239Z,25.70
2023-07-24T10:15:20.221Z,25.70
2023-07-24T10:17:47.679Z,25.40
2023-07-24T10:20:18.126Z,25.20
2023-07-24T10:22:45.028Z,25.10
2023-07-24T10:25:12.526Z,24.90
2023-07-24T10:27:47.910Z,24.90
2023-07-24T10:30:32.264Z,25.10
2023-07-24T10:33:13.012Z,24.90
2023-07-24T10:35:52.031Z,25.20
2023-07-24T10:38:19.182Z,24.80
2023-07-24T10:40:47.946Z,24.90
2023-07-24T10:43:18.997Z,24.80
2023-07-24T10:45:50.300Z,24.60
2023-07-24T10:48:21.945Z,24.40
2023-07-24T10:50:54.028Z,24.40
2023-07-24T10:53:23.065Z,24.40
2023-07-24T10:55:54.080Z,24.40
2023-07-24T10:58:20.916Z,24.70
2023-07-24T11:00:48.523Z,24.50
2023-07-24T11:03:16.255Z,24.70
2023-07-24T11:05:44.226Z,24.70
2023-07-24T11:08:19.480Z,25.10
2023-07-24T11:10:53.179Z,25.30
2023-07-24T11:13:21.672Z,25.10
2023-07-24T11:15:49.377Z,25.20
2023-07-24T11:18:16.405Z,25.10
2023-07-24T11:20:51.876Z,25.20
2023-07-24T11:23:19.640Z,25.40
2023-07-24T11:25:47.306Z,25.70
2023-07-24T11:28:16.061Z,25.80
2023-07-24T11:30:44.429Z,26.00
2023-07-24T11:33:13.918Z,26.10
2023-07-24T11:35:41.955Z,25.80
2023-07-24T11:38:11.956Z,25.30
2023-07-24T11:40:44.740Z,25.30
2023-07-24T11:43:24.977Z,25.60
2023-07-24T11:45:53.472Z,26.30
2023-07-24T11:48:25.366Z,26.40
2023-07-24T11:50:55.490Z,26.70
2023-07-24T11:53:24.930Z,26.50
2023-07-24T11:55:56.833Z,26.30
2023-07-24T11:58:26.865Z,26.00
2023-07-24T12:00:54.140Z,26.40
2023-07-24T12:03:26.561Z,26.30
2023-07-24T12:05:53.848Z,25.90
2023-07-24T12:08:31.559Z,25.80
2023-07-24T12:10:58.681Z,26.00
2023-07-24T12:13:25.392Z,25.90
2023-07-24T12:15:52.181Z,25.90
2023-07-24T12:18:18.992Z,26.00
2023-07-24T12:20:45.771Z,26.20
2023-07-24T12:23:12.518Z,26.00
2023-07-24T12:25:39.273Z,25.70
2023-07-24T12:28:05.991Z,25.20
2023-07-24T12:30:32.685Z,25.30
2023-07-24T12:32:59.609Z,25.00
2023-07-24T12:35:26.361Z,24.50
2023-07-24T12:37:53.114Z,24.60
2023-07-24T12:40:19.842Z,24.60
2023-07-24T12:42:46.546Z,24.40
2023-07-24T12:45:13.354Z,24.20
2023-07-24T12:47:40.130Z,24.00
2023-07-24T12:50:08.490Z,23.70
2023-07-24T12:52:35.446Z,23.80
2023-07-24T12:55:03.047Z,23.30
2023-07-24T12:57:30.354Z,22.90
2023-07-24T12:59:57.190Z,22.70
2023-07-24T13:02:24.020Z,22.80
2023-07-24T13:04:50.812Z,23.40
2023-07-24T13:07:17.553Z,23.70
2023-07-24T13:09:44.708Z,23.90
2023-07-24T13:12:11.482Z,23.70
2023-07-24T13:14:40.353Z,23.40
2023-07-24T13:17:09.168Z,23.50
2023-07-24T13:19:35.862Z,23.70
2023-07-24T13:22:02.626Z,24.10
2023-07-24T13:24:29.375Z,24.40
2023-07-24T13:26:56.196Z,24.30
2023-07-24T13:29:25.502Z,24.00
2023-07-24T13:31:53.362Z,24.20
2023-07-24T13:34:22.943Z,23.50
2023-07-24T13:36:49.755Z,23.50
2023-07-24T13:39:16.527Z,23.80
2023-07-24T13:41:43.592Z,23.80
2023-07-24T13:44:10.967Z,23.80
2023-07-24T13:46:40.402Z,23.40
2023-07-24T13:49:08.163Z,23.30
2023-07-24T13:51:34.996Z,23.30
2023-07-24T13:54:03.098Z,23.50
2023-07-24T13:56:32.196Z,23.60
2023-07-24T13:58:59.243Z,23.60
2023-07-24T14:01:26.406Z,23.80
2023-07-24T14:03:53.521Z,24.20
2023-07-24T14:06:20.309Z,24.60
2023-07-24T14:08:47.043Z,24.60
2023-07-24T14:11:13.722Z,24.70
2023-07-24T14:13:40.462Z,24.40
2023-07-24T14:16:07.165Z,24.50
2023-07-24T14:18:33.911Z,24.70
2023-07-24T14:21:00.790Z,24.60
2023-07-24T14:23:27.750Z,24.50
2023-07-24T14:25:54.492Z,24.30
2023-07-24T14:28:21.187Z,24.00
2023-07-24T14:30:48.467Z,24.00
2023-07-24T14:33:15.172Z,23.80
2023-07-24T14:35:41.933Z,23.70
2023-07-24T14:38:08.640Z,23.50
2023-07-24T14:40:35.395Z,23.40
2023-07-24T14:43:05.506Z,22.80
2023-07-24T14:45:34.350Z,22.50
2023-07-24T14:48:01.243Z,22.30
2023-07-24T14:50:28.160Z,22.60
2023-07-24T14:52:54.881Z,23.00
2023-07-24T14:55:21.708Z,23.10
2023-07-24T14:57:48.833Z,23.10
2023-07-24T15:00:17.565Z,22.60
2023-07-24T15:02:44.690Z,22.50
2023-07-24T15:05:11.492Z,22.50
2023-07-24T15:07:38.928Z,22.80
2023-07-24T15:10:06.782Z,22.90
2023-07-24T15:12:33.524Z,22.90
2023-07-24T15:15:00.208Z,22.80
2023-07-24T15:17:26.916Z,22.80
2023-07-24T15:19:53.655Z,22.70
2023-07-24T15:22:20.424Z,22.60
2023-07-24T15:24:47.250Z,22.90
2023-07-24T15:27:13.999Z,23.00
2023-07-24T15:29:40.756Z,23.30
2023-07-24T15:32:08.167Z,23.70
2023-07-24T15:34:37.389Z,24.10
2023-07-24T15:37:06.244Z,24.40
2023-07-24T15:39:32.930Z,23.80
2023-07-24T15:41:59.633Z,24.00
2023-07-24T15:44:26.317Z,23.90
2023-07-24T15:46:53.030Z,23.50
2023-07-24T15:49:20.076Z,23.30
2023-07-24T15:51:46.798Z,23.20
2023-07-24T15:54:13.494Z,23.00
2023-07-24T15:56:40.449Z,22.80
2023-07-24T15:59:07.782Z,22.70
2023-07-24T16:01:34.925Z,22.70
2023-07-24T16:04:01.992Z,22.80
2023-07-24T16:06:29.004Z,22.90
2023-07-24T16:08:55.826Z,23.00
2023-07-24T16:11:22.607Z,22.80
2023-07-24T16:13:49.307Z,22.90
2023-07-24T16:16:16.107Z,22.70
2023-07-24T16:18:43.007Z,22.50
2023-07-24T16:21:09.855Z,22.50
2023-07-24T16:23:36.859Z,22.50
2023-07-24T16:26:03.855Z,22.70
2023-07-24T16:28:30.698Z,22.90
2023-07-24T16:31:00.558Z,23.10
2023-07-24T16:33:27.492Z,23.20
2023-07-24T16:35:54.270Z,23.10
2023-07-24T16:38:21.765Z,23.00
2023-07-24T16:40:48.627Z,22.60
2023-07-24T16:43:15.333Z,22.60
2023-07-24T16:45:42.093Z,22.60
2023-07-24T16:48:08.944Z,22.50
2023-07-24T16:50:36.383Z,22.60
2023-07-24T16:53:04.521Z,22.60
2023-07-24T16:55:31.403Z,22.60
2023-07-24T16:57:58.234Z,22.70
2023-07-24T17:00:24.948Z,22.90
2023-07-24T17:02:51.897Z,22.80
2023-07-24T17:05:18.861Z,22.90
2023-07-24T17:07:45.814Z,22.90
2023-07-24T17:10:12.612Z,22.90
2023-07-24T17:12:39.351Z,22.80
2023-07-24T17:15:06.773Z,22.70
2023-07-24T17:17:33.886Z,22.60
2023-07-24T17:20:01.038Z,22.60
2023-07-24T17:22:27.899Z,22.80
2023-07-24T17:24:54.680Z,22.90
2023-07-24T17:27:22.454Z,22.70
2023-07-24T17:29:49.201Z,22.70
2023-07-24T17:32:19.485Z,22.60
2023-07-24T17:34:46.254Z,22.50
2023-07-24T17:37:21.168Z,22.50
2023-07-24T17:39:55.498Z,22.40
2023-07-24T17:42:22.255Z,22.40
2023-07-24T17:44:48.982Z,22.40
2023-07-24T17:47:15.735Z,22.30
2023-07-24T17:49:47.600Z,22.40
2023-07-24T17:52:25.017Z,22.40
2023-07-24T17:54:51.714Z,22.30
2023-07-24T17:57:18.375Z,22.30
2023-07-24T17:59:45.208Z,22.40
2023-07-24T18:02:12.162Z,22.40
2023-07-24T18:04:39.206Z,22.30
2023-07-24T18:07:06.132Z,22.20
2023-07-24T18:09:32.794Z,22.20
2023-07-24T18:11:59.515Z,22.30
2023-07-24T18:14:26.244Z,22.30
2023-07-24T18:16:53.009Z,22.20
2023-07-24T18:19:19.726Z,22.30
2023-07-24T18:21:46.553Z,22.30
2023-07-24T18:24:13.557Z,22.30
2023-07-24T18:26:40.312Z,22.30
2023-07-24T18:29:07.060Z,22.30
2023-07-24T18:31:34.069Z,22.20
2023-07-24T18:34:00.978Z,21.90
2023-07-24T18:36:27.676Z,21.80
2023-07-24T18:38:54.400Z,21.60
2023-07-24T18:41:21.067Z,21.60
2023-07-24T18:43:47.746Z,21.50
2023-07-24T18:46:14.458Z,21.40
2023-07-24T18:48:41.189Z,21.30
2023-07-24T18:51:09.500Z,21.30
2023-07-24T18:53:36.190Z,21.40
2023-07-24T18:56:02.933Z,21.40
2023-07-24T18:58:29.642Z,21.50
2023-07-24T19:00:56.485Z,21.50
2023-07-24T19:03:23.409Z,21.50
2023-07-24T19:05:50.158Z,21.40
2023-07-24T19:08:16.836Z,21.30
2023-07-24T19:10:43.523Z,21.30
2023-07-24T19:13:10.239Z,21.30
2023-07-24T19:15:37.042Z,21.30
2023-07-24T19:18:04.105Z,21.20
2023-07-24T19:20:31.566Z,21.10
2023-07-24T19:22:58.250Z,21.10
2023-07-24T19:25:24.915Z,21.10
2023-07-24T19:27:51.694Z,21.10
2023-07-24T19:30:18.420Z,21.00
2023-07-24T19:32:46.388Z,21.00
2023-07-24T19:35:13.262Z,21.00
2023-07-24T19:37:41.645Z,21.00
2023-07-24T19:40:09.287Z,20.90
2023-07-24T19:42:36.024Z,20.80
2023-07-24T19:45:02.762Z,20.70
2023-07-24T19:47:29.504Z,20.60
2023-07-24T19:49:56.282Z,20.50
2023-07-24T19:52:23.811Z,20.40
2023-07-24T19:54:51.945Z,20.40
2023-07-24T19:57:18.600Z,20.40
2023-07-24T19:59:45.319Z,20.30
2023-07-24T20:02:12.458Z,20.20
2023-07-24T20:04:39.220Z,20.20
2023-07-24T20:07:06.404Z,20.00
2023-07-24T20:09:33.161Z,19.90
2023-07-24T20:11:59.904Z,19.80
2023-07-24T20:14:26.616Z,19.70
2023-07-24T20:16:53.499Z,19.60
2023-07-24T20:19:22.472Z,19.50
2023-07-24T20:21:49.375Z,19.40
2023-07-24T20:24:16.083Z,19.30
2023-07-24T20:26:42.779Z,19.30
2023-07-24T20:29:09.478Z,19.30
2023-07-24T20:31:36.287Z,19.30
2023-07-24T20:34:03.000Z,19.30
2023-07-24T20:36:29.764Z,19.20
2023-07-24T20:38:56.428Z,19.10
2023-07-24T20:41:23.468Z,18.90
2023-07-24T20:43:50.506Z,18.80
2023-07-24T20:46:17.571Z,18.80
2023-07-24T20:48:45.420Z,18.70
2023-07-24T20:51:21.128Z,18.60
2023-07-24T20:53:48.659Z,18.50
2023-07-24T20:56:15.978Z,18.50
2023-07-24T20:58:43.072Z,18.40
2023-07-24T21:01:10.939Z,18.30
2023-07-24T21:03:38.848Z,18.40
2023-07-24T21:06:05.654Z,18.30
2023-07-24T21:08:32.376Z,18.30
2023-07-24T21:10:59.030Z,18.40
2023-07-24T21:13:26.664Z,18.40
2023-07-24T21:15:55.462Z,18.50
2023-07-24T21:18:22.699Z,18.60
2023-07-24T21:20:50.257Z,18.50
2023-07-24T21:23:17.318Z,18.60
2023-07-24T21:25:56.575Z,18.60
2023-07-24T21:28:24.401Z,18.50
2023-07-24T21:30:51.781Z,18.50
2023-07-24T21:33:20.065Z,18.50
2023-07-24T21:35:46.860Z,18.40
2023-07-24T21:38:14.701Z,18.20
2023-07-24T21:40:42.079Z,18.00
2023-07-24T21:43:09.658Z,18.00
2023-07-24T21:45:37.442Z,18.00
2023-07-24T21:48:06.572Z,17.90
2023-07-24T21:50:34.734Z,17.80
2023-07-24T21:53:05.429Z,17.60
2023-07-24T21:55:32.294Z,17.60
2023-07-24T21:57:59.001Z,17.50
2023-07-24T22:00:26.856Z,17.50
2023-07-24T22:02:53.802Z,17.30
2023-07-24T22:05:20.587Z,17.20
2023-07-24T22:07:47.301Z,17.10
2023-07-24T22:10:14.022Z,17.10
2023-07-24T22:12:40.834Z,17.10
2023-07-24T22:15:09.138Z,17.10
2023-07-24T22:17:37.260Z,17.00
2023-07-24T22:20:09.020Z,16.90
2023-07-24T22:22:35.987Z,17.00
2023-07-24T22:25:04.250Z,17.00
2023-07-24T22:27:32.670Z,17.00
2023-07-24T22:30:00.377Z,17.20
2023-07-24T22:32:27.148Z,17.20
2023-07-24T22:34:54.656Z,17.30
2023-07-24T22:37:22.943Z,17.30
2023-07-24T22:39:52.428Z,17.40
2023-07-24T22:42:20.237Z,17.40
2023-07-24T22:44:47.109Z,17.40
2023-07-24T22:47:13.904Z,17.50
2023-07-24T22:49:41.742Z,17.50
2023-07-24T22:52:09.457Z,17.50
2023-07-24T22:54:36.493Z,17.60
2023-07-24T22:57:04.406Z,17.50
2023-07-24T22:59:32.412Z,17.50
2023-07-24T23:02:00.149Z,17.40
2023-07-24T23:04:27.480Z,17.40
2023-07-24T23:06:56.391Z,17.40
2023-07-24T23:09:24.308Z,17.30
2023-07-24T23:11:52.085Z,17.30
2023-07-24T23:14:20.508Z,17.30
2023-07-24T23:16:47.818Z,17.30
2023-07-24T23:19:15.272Z,17.40
2023-07-24T23:21:43.045Z,17.40
2023-07-24T23:24:10.803Z,17.30
2023-07-24T23:26:38.500Z,17.30
2023-07-24T23:29:06.422Z,17.30
2023-07-24T23:31:33.813Z,17.20
2023-07-24T23:34:01.521Z,17.20
2023-07-24T23:36:28.547Z,17.20
2023-07-24T23:38:55.356Z,17.10
2023-07-24T23:41:22.056Z,17.10
2023-07-24T23:43:48.872Z,17.00
2023-07-24T23:46:17.159Z,17.10
2023-07-24T23:48:44.446Z,17.20
2023-07-24T23:51:14.722Z,17.10
2023-07-24T23:53:41.468Z,17.10
2023-07-24T23:56:08.271Z,17.10
2023-07-24T23:58:35.047Z,16.90
